createdAt,value
2022-08-07T00:00:14.791Z,13.23
2022-08-07T00:02:45.536Z,13.22
2022-08-07T00:05:12.586Z,13.16
2022-08-07T00:07:41.192Z,13.17
2022-08-07T00:10:26.399Z,13.13
2022-08-07T00:13:00.607Z,13.11
2022-08-07T00:15:38.028Z,13.09
2022-08-07T00:18:18.702Z,13.06
2022-08-07T00:20:46.535Z,13.05
2022-08-07T00:23:14.933Z,12.99
2022-08-07T00:25:45.946Z,12.96
2022-08-07T00:28:18.689Z,12.90
2022-08-07T00:30:48.516Z,12.90
2022-08-07T00:33:15.918Z,12.84
2022-08-07T00:35:46.511Z,12.79
2022-08-07T00:38:16.012Z,12.76
2022-08-07T00:40:58.279Z,12.69
2022-08-07T00:44:01.151Z,12.66
2022-08-07T00:46:11.159Z,12.58
2022-08-07T00:48:37.605Z,12.54
2022-08-07T00:51:09.765Z,12.54
2022-08-07T00:53:39.213Z,12.50
2022-08-07T00:56:17.541Z,12.44
2022-08-07T00:58:47.134Z,12.38
2022-08-07T01:01:17.426Z,12.34
2022-08-07T01:03:57.351Z,12.34
2022-08-07T01:06:30.228Z,12.30
2022-08-07T01:09:00.813Z,12.29
2022-08-07T01:12:08.979Z,12.27
2022-08-07T01:14:28.511Z,12.26
2022-08-07T01:16:56.025Z,12.25
2022-08-07T01:19:23.460Z,12.18
2022-08-07T01:21:53.237Z,12.15
2022-08-07T01:24:21.662Z,12.11
2022-08-07T01:26:52.815Z,12.07
2022-08-07T01:29:27.755Z,12.07
2022-08-07T01:31:59.691Z,12.06
2022-08-07T01:34:31.212Z,11.99
2022-08-07T01:36:59.258Z,11.91
2022-08-07T01:39:39.720Z,11.89
2022-08-07T01:42:39.284Z,11.83
2022-08-07T01:45:01.124Z,11.79
2022-08-07T01:48:21.030Z,11.79
2022-08-07T01:50:14.792Z,11.78
2022-08-07T01:52:49.747Z,11.75
2022-08-07T01:55:28.941Z,11.73
2022-08-07T01:58:05.727Z,11.67
2022-08-07T02:00:49.342Z,11.65
2022-08-07T02:03:21.716Z,11.64
2022-08-07T02:06:01.204Z,11.60
2022-08-07T02:08:29.836Z,11.56
2022-08-07T02:10:59.425Z,11.54
2022-08-07T02:13:56.550Z,11.53
2022-08-07T02:16:18.174Z,11.48
2022-08-07T02:18:47.606Z,11.43
2022-08-07T02:21:16.386Z,11.41
2022-08-07T02:23:43.835Z,11.40
2022-08-07T02:26:31.509Z,11.38
2022-08-07T02:29:00.500Z,11.34
2022-08-07T02:31:29.438Z,11.29
2022-08-07T02:34:03.625Z,11.34
2022-08-07T02:36:39.506Z,11.31
2022-08-07T02:39:16.218Z,11.28
2022-08-07T02:41:56.542Z,11.25
2022-08-07T02:44:27.616Z,11.23
2022-08-07T02:47:02.862Z,11.21
2022-08-07T02:49:57.433Z,11.19
2022-08-07T02:52:21.441Z,11.18
2022-08-07T02:55:01.125Z,11.16
2022-08-07T02:57:31.799Z,11.17
2022-08-07T03:00:10.287Z,11.11
2022-08-07T03:02:54.054Z,11.09
2022-08-07T03:05:23.012Z,11.09
2022-08-07T03:08:07.795Z,11.05
2022-08-07T03:10:40.689Z,11.03
2022-08-07T03:13:19.249Z,11.00
2022-08-07T03:15:56.454Z,11.01
2022-08-07T03:18:34.818Z,11.00
2022-08-07T03:21:08.565Z,10.92
2022-08-07T03:24:17.833Z,10.88
2022-08-07T03:26:32.026Z,10.88
2022-08-07T03:29:01.985Z,10.87
2022-08-07T03:31:43.262Z,10.80
2022-08-07T03:34:18.574Z,10.77
2022-08-07T03:36:51.153Z,10.73
2022-08-07T03:39:45.839Z,10.71
2022-08-07T03:42:06.563Z,10.71
2022-08-07T03:44:34.808Z,10.67
2022-08-07T03:47:13.378Z,10.67
2022-08-07T03:49:49.917Z,10.72
2022-08-07T03:52:26.571Z,10.71
2022-08-07T03:55:06.453Z,10.68
2022-08-07T03:58:35.450Z,10.70
2022-08-07T04:00:33.455Z,10.69
2022-08-07T04:03:11.004Z,10.71
2022-08-07T04:05:48.069Z,10.72
2022-08-07T04:08:26.681Z,10.74
2022-08-07T04:12:23.723Z,10.77
2022-08-07T04:14:09.982Z,10.79
2022-08-07T04:16:58.182Z,10.82
2022-08-07T04:19:34.109Z,10.85
2022-08-07T04:22:22.885Z,10.87
2022-08-07T04:25:01.943Z,10.92
2022-08-07T04:27:43.898Z,10.96
2022-08-07T04:30:35.459Z,10.97
2022-08-07T04:33:14.010Z,10.98
2022-08-07T04:35:51.450Z,11.02
2022-08-07T04:38:29.394Z,11.11
2022-08-07T04:40:59.778Z,11.11
2022-08-07T04:44:12.292Z,11.17
2022-08-07T04:47:05.049Z,11.31
2022-08-07T04:49:57.819Z,11.52
2022-08-07T04:52:51.410Z,11.65
2022-08-07T04:58:09.996Z,11.75
2022-08-07T05:00:09.920Z,11.85
2022-08-07T05:02:44.134Z,11.90
2022-08-07T05:05:53.231Z,11.92
2022-08-07T05:09:01.230Z,12.12
2022-08-07T05:11:57.388Z,12.28
2022-08-07T05:15:03.578Z,12.31
2022-08-07T05:17:51.929Z,12.39
2022-08-07T05:21:02.303Z,12.55
2022-08-07T05:23:49.645Z,12.70
2022-08-07T05:26:26.066Z,12.73
2022-08-07T05:28:59.378Z,12.77
2022-08-07T05:31:52.920Z,12.83
2022-08-07T05:34:41.926Z,12.98
2022-08-07T05:37:16.198Z,13.31
2022-08-07T05:40:05.925Z,13.43
2022-08-07T05:43:02.786Z,13.54
2022-08-07T05:45:47.652Z,13.49
2022-08-07T05:48:27.359Z,13.57
2022-08-07T05:51:11.739Z,13.71
2022-08-07T05:54:13.139Z,13.84
2022-08-07T05:56:39.526Z,14.02
2022-08-07T05:59:20.870Z,14.14
2022-08-07T06:01:52.005Z,14.17
2022-08-07T06:04:43.474Z,14.30
2022-08-07T06:08:13.961Z,14.71
2022-08-07T06:10:22.987Z,14.70
2022-08-07T06:12:56.770Z,14.87
2022-08-07T06:15:39.459Z,15.12
2022-08-07T06:18:27.935Z,15.42
2022-08-07T06:22:14.889Z,15.48
2022-08-07T06:24:45.919Z,15.97
2022-08-07T06:27:04.628Z,16.32
2022-08-07T06:30:02.850Z,16.78
2022-08-07T06:33:02.231Z,18.19
2022-08-07T06:35:48.211Z,19.08
2022-08-07T06:38:35.763Z,20.32
2022-08-07T06:41:06.967Z,21.02
2022-08-07T06:43:39.815Z,22.64
2022-08-07T06:46:12.341Z,23.87
2022-08-07T06:48:42.184Z,25.39
2022-08-07T06:51:15.374Z,26.82
2022-08-07T06:55:30.202Z,27.29
2022-08-07T06:56:48.512Z,26.99
2022-08-07T07:00:13.372Z,27.64
2022-08-07T07:02:48.363Z,28.18
2022-08-07T07:05:03.864Z,28.97
2022-08-07T07:08:00.238Z,28.85
2022-08-07T07:10:29.735Z,30.27
2022-08-07T07:13:03.311Z,31.00
2022-08-07T07:15:36.088Z,29.89
2022-08-07T07:18:15.365Z,30.83
2022-08-07T07:21:13.473Z,31.89
2022-08-07T07:24:10.429Z,31.61
2022-08-07T07:26:32.361Z,30.79
2022-08-07T07:29:39.660Z,30.92
2022-08-07T07:31:56.671Z,32.40
2022-08-07T07:34:30.875Z,34.22
2022-08-07T07:37:14.539Z,35.04
2022-08-07T07:39:54.302Z,34.06
2022-08-07T07:42:22.412Z,33.19
2022-08-07T07:45:01.885Z,34.12
2022-08-07T07:47:29.406Z,34.60
2022-08-07T07:50:33.878Z,34.89
2022-08-07T07:52:46.902Z,33.91
2022-08-07T07:55:14.555Z,34.95
2022-08-07T07:57:52.402Z,35.01
2022-08-07T08:00:29.583Z,33.83
2022-08-07T08:03:16.686Z,33.17
2022-08-07T08:05:54.762Z,33.51
2022-08-07T08:08:34.961Z,32.92
2022-08-07T08:11:13.470Z,31.70
2022-08-07T08:13:55.441Z,32.94
2022-08-07T08:16:29.775Z,31.16
2022-08-07T08:18:57.320Z,29.55
2022-08-07T08:21:55.893Z,29.13
2022-08-07T08:25:04.444Z,27.95
2022-08-07T08:27:36.877Z,27.58
2022-08-07T08:30:07.256Z,29.01
2022-08-07T08:32:38.185Z,30.01
2022-08-07T08:35:10.185Z,31.08
2022-08-07T08:38:00.379Z,31.22
2022-08-07T08:40:34.449Z,31.71
2022-08-07T08:43:20.262Z,29.42
2022-08-07T08:46:21.974Z,28.94
2022-08-07T08:49:02.157Z,28.65
2022-08-07T08:52:01.124Z,27.20
2022-08-07T08:54:47.193Z,29.42
2022-08-07T08:57:30.319Z,33.23
2022-08-07T09:00:09.028Z,33.17
2022-08-07T09:02:57.755Z,32.53
2022-08-07T09:05:55.539Z,29.99
2022-08-07T09:08:35.879Z,30.37
2022-08-07T09:11:51.224Z,29.42
2022-08-07T09:14:40.798Z,28.61
2022-08-07T09:18:08.749Z,29.41
2022-08-07T09:20:57.697Z,32.17
2022-08-07T09:24:33.305Z,34.84
2022-08-07T09:26:57.106Z,34.44
2022-08-07T09:30:05.593Z,33.04
2022-08-07T09:32:37.565Z,30.89
2022-08-07T09:36:02.629Z,34.26
2022-08-07T09:38:29.798Z,37.62
2022-08-07T09:41:36.367Z,37.70
2022-08-07T09:47:52.425Z,36.00
2022-08-07T09:48:01.301Z,36.10
2022-08-07T09:51:14.521Z,36.83
2022-08-07T09:54:00.603Z,36.51
2022-08-07T09:56:57.186Z,37.35
2022-08-07T09:59:34.559Z,38.45
2022-08-07T10:02:35.037Z,38.11
2022-08-07T10:05:29.706Z,39.20
2022-08-07T10:08:18.094Z,39.83
2022-08-07T10:11:16.917Z,40.45
2022-08-07T10:14:14.645Z,41.61
2022-08-07T10:16:59.734Z,41.22
2022-08-07T10:20:00.935Z,40.31
2022-08-07T10:23:07.664Z,40.57
2022-08-07T10:25:52.995Z,36.92
2022-08-07T10:28:49.575Z,36.50
2022-08-07T10:31:42.285Z,38.04
2022-08-07T10:34:39.079Z,39.62
2022-08-07T10:38:00.909Z,38.72
2022-08-07T10:40:33.627Z,39.01
2022-08-07T10:43:15.258Z,37.96
2022-08-07T10:45:58.210Z,38.88
2022-08-07T10:48:51.161Z,40.93
2022-08-07T10:51:57.159Z,37.94
2022-08-07T10:54:38.523Z,39.48
2022-08-07T10:57:34.730Z,38.19
2022-08-07T11:00:08.787Z,38.48
2022-08-07T11:03:11.367Z,37.53
2022-08-07T11:05:56.454Z,37.84
2022-08-07T11:08:49.321Z,37.43
2022-08-07T11:11:35.724Z,37.21
2022-08-07T11:14:44.103Z,37.54
2022-08-07T11:17:23.179Z,38.48
2022-08-07T11:20:07.522Z,38.46
2022-08-07T11:22:46.559Z,37.85
2022-08-07T11:25:23.946Z,37.05
2022-08-07T11:28:15.358Z,36.99
2022-08-07T11:31:22.040Z,35.58
2022-08-07T11:34:00.051Z,37.60
2022-08-07T11:36:50.083Z,35.73
2022-08-07T11:39:59.094Z,36.18
2022-08-07T11:42:55.233Z,36.88
2022-08-07T11:45:59.362Z,37.26
2022-08-07T11:49:10.269Z,37.43
2022-08-07T11:51:51.382Z,36.37
2022-08-07T11:54:55.105Z,35.33
2022-08-07T11:57:57.834Z,35.53
2022-08-07T12:00:24.535Z,35.79
2022-08-07T12:03:41.735Z,36.10
2022-08-07T12:06:39.165Z,33.54
2022-08-07T12:09:16.119Z,31.51
2022-08-07T12:12:09.431Z,32.89
2022-08-07T12:14:42.856Z,33.79
2022-08-07T12:17:19.882Z,34.74
2022-08-07T12:20:06.276Z,33.08
2022-08-07T12:22:56.192Z,32.62
2022-08-07T12:26:05.447Z,33.43
2022-08-07T12:28:54.908Z,33.20
2022-08-07T12:31:53.176Z,33.80
2022-08-07T12:34:19.779Z,33.56
2022-08-07T12:36:50.049Z,32.81
2022-08-07T12:39:43.740Z,33.06
2022-08-07T12:42:07.305Z,32.98
2022-08-07T12:44:35.072Z,32.44
2022-08-07T12:47:27.107Z,32.66
2022-08-07T12:50:33.922Z,32.42
2022-08-07T12:53:05.223Z,32.87
2022-08-07T12:56:02.873Z,32.88
2022-08-07T12:58:37.451Z,32.43
2022-08-07T13:01:06.387Z,32.87
2022-08-07T13:04:31.883Z,32.56
2022-08-07T13:08:13.752Z,32.30
2022-08-07T13:11:14.209Z,32.09
2022-08-07T13:13:58.183Z,32.56
2022-08-07T13:16:46.865Z,32.28
2022-08-07T13:19:50.763Z,32.55
2022-08-07T13:22:28.352Z,30.76
2022-08-07T13:24:59.200Z,30.54
2022-08-07T13:28:13.077Z,31.24
2022-08-07T13:30:40.206Z,31.37
2022-08-07T13:34:14.903Z,31.51
2022-08-07T13:36:05.516Z,30.73
2022-08-07T13:38:45.421Z,30.50
2022-08-07T13:41:48.354Z,30.68
2022-08-07T13:44:26.049Z,30.07
2022-08-07T13:46:57.637Z,30.22
2022-08-07T13:50:33.937Z,29.48
2022-08-07T13:52:27.160Z,30.57
2022-08-07T13:55:10.847Z,30.65
2022-08-07T13:57:40.030Z,30.52
2022-08-07T14:00:35.743Z,30.31
2022-08-07T14:03:29.011Z,30.08
2022-08-07T14:06:05.997Z,29.97
2022-08-07T14:08:33.793Z,30.35
2022-08-07T14:11:14.476Z,30.56
2022-08-07T14:13:45.169Z,30.67
2022-08-07T14:16:17.426Z,31.01
2022-08-07T14:18:49.919Z,30.94
2022-08-07T14:22:01.876Z,30.80
2022-08-07T14:24:28.703Z,29.68
2022-08-07T14:28:09.373Z,30.02
2022-08-07T14:30:06.276Z,30.55
2022-08-07T14:32:45.730Z,30.12
2022-08-07T14:35:45.024Z,29.47
2022-08-07T14:38:26.588Z,30.10
2022-08-07T14:41:12.345Z,30.46
2022-08-07T14:43:58.901Z,30.21
2022-08-07T14:46:33.186Z,29.24
2022-08-07T14:49:17.287Z,29.10
2022-08-07T14:52:05.109Z,29.64
2022-08-07T14:54:41.962Z,29.88
2022-08-07T15:00:05.000Z,30.29
2022-08-07T15:02:34.490Z,29.64
2022-08-07T15:05:03.119Z,29.80
2022-08-07T15:10:26.689Z,30.14
2022-08-07T15:12:58.366Z,29.96
2022-08-07T15:15:34.542Z,29.68
2022-08-07T15:18:14.048Z,29.30
2022-08-07T15:25:15.313Z,29.18
2022-08-07T15:26:46.757Z,29.63
2022-08-07T15:30:06.816Z,29.84
2022-08-07T15:34:56.966Z,29.77
2022-08-07T15:40:33.783Z,28.97
2022-08-07T15:43:10.453Z,28.47
2022-08-07T15:46:04.538Z,28.62
2022-08-07T15:49:11.635Z,28.74
2022-08-07T15:54:19.005Z,28.77
2022-08-07T15:56:48.281Z,28.75
2022-08-07T15:59:20.255Z,28.71
2022-08-07T16:02:08.523Z,28.74
2022-08-07T16:04:37.242Z,28.60
2022-08-07T16:08:33.270Z,28.57
2022-08-07T16:09:58.223Z,28.64
2022-08-07T16:13:01.100Z,28.81
2022-08-07T16:15:55.706Z,28.82
2022-08-07T16:18:43.546Z,27.98
2022-08-07T16:22:04.183Z,27.96
2022-08-07T16:24:52.269Z,27.81
2022-08-07T16:27:40.265Z,28.27
2022-08-07T16:30:30.743Z,28.02
2022-08-07T16:34:01.723Z,27.76
2022-08-07T16:36:07.342Z,28.11
2022-08-07T16:39:06.055Z,28.17
2022-08-07T16:42:12.741Z,28.59
2022-08-07T16:45:15.323Z,28.57
2022-08-07T16:48:53.866Z,28.58
2022-08-07T16:51:54.657Z,28.58
2022-08-07T16:54:54.353Z,28.42
2022-08-07T16:58:02.754Z,28.20
2022-08-07T17:00:29.478Z,27.76
2022-08-07T17:03:58.365Z,27.04
2022-08-07T17:06:29.676Z,27.19
2022-08-07T17:09:14.017Z,26.53
2022-08-07T17:12:04.303Z,26.67
2022-08-07T17:15:15.471Z,26.25
2022-08-07T17:17:58.897Z,26.24
2022-08-07T17:20:47.210Z,26.39
2022-08-07T17:23:35.151Z,26.41
2022-08-07T17:26:31.332Z,26.14
2022-08-07T17:30:12.682Z,26.39
2022-08-07T17:32:35.238Z,26.13
2022-08-07T17:35:51.305Z,25.95
2022-08-07T17:38:38.223Z,25.79
2022-08-07T17:42:04.984Z,25.51
2022-08-07T17:44:54.642Z,25.42
2022-08-07T17:47:55.788Z,25.26
2022-08-07T17:51:06.805Z,25.13
2022-08-07T17:53:59.974Z,25.02
2022-08-07T17:56:34.849Z,24.83
2022-08-07T17:59:19.762Z,24.75
2022-08-07T18:01:52.755Z,24.54
2022-08-07T18:04:40.717Z,24.43
2022-08-07T18:07:20.565Z,24.26
2022-08-07T18:10:06.144Z,24.07
2022-08-07T18:12:49.696Z,23.93
2022-08-07T18:15:23.009Z,23.81
2022-08-07T18:18:46.069Z,23.69
2022-08-07T18:21:10.963Z,23.55
2022-08-07T18:23:50.875Z,23.36
2022-08-07T18:26:34.244Z,23.17
2022-08-07T18:30:07.238Z,23.03
2022-08-07T18:32:09.117Z,22.88
2022-08-07T18:34:53.318Z,22.77
2022-08-07T18:38:58.250Z,22.63
2022-08-07T18:40:59.812Z,22.47
2022-08-07T18:44:03.321Z,22.29
2022-08-07T18:46:59.644Z,22.15
2022-08-07T18:50:35.024Z,22.04
2022-08-07T18:52:40.834Z,21.86
2022-08-07T18:55:42.363Z,21.75
2022-08-07T18:58:51.618Z,21.64
2022-08-07T19:02:18.708Z,21.48
2022-08-07T19:04:39.765Z,21.33
2022-08-07T19:07:34.282Z,21.23
2022-08-07T19:10:13.410Z,21.16
2022-08-07T19:13:09.930Z,21.04
2022-08-07T19:16:05.130Z,20.97
2022-08-07T19:18:55.047Z,20.87
2022-08-07T19:21:46.629Z,20.73
2022-08-07T19:24:30.462Z,20.66
2022-08-07T19:28:30.269Z,20.55
2022-08-07T19:31:03.259Z,20.45
2022-08-07T19:32:44.764Z,20.40
2022-08-07T19:35:22.455Z,20.38
2022-08-07T19:37:57.528Z,20.29
2022-08-07T19:40:31.090Z,20.30
2022-08-07T19:42:58.442Z,20.21
2022-08-07T19:46:04.817Z,20.18
2022-08-07T19:48:18.387Z,20.11
2022-08-07T19:50:53.162Z,20.08
2022-08-07T19:54:29.669Z,20.05
2022-08-07T19:56:59.734Z,20.09
2022-08-07T19:58:57.387Z,20.07
2022-08-07T20:01:52.677Z,20.03
2022-08-07T20:04:12.604Z,20.06
2022-08-07T20:06:59.178Z,19.94
2022-08-07T20:10:37.126Z,19.94
2022-08-07T20:12:31.984Z,19.87
2022-08-07T20:15:02.770Z,19.80
2022-08-07T20:17:31.456Z,19.75
2022-08-07T20:20:04.964Z,19.73
2022-08-07T20:22:35.899Z,19.69
2022-08-07T20:25:12.777Z,19.65
2022-08-07T20:27:58.042Z,19.62
2022-08-07T20:30:35.184Z,19.54
2022-08-07T20:33:04.030Z,19.45
2022-08-07T20:35:51.760Z,19.37
2022-08-07T20:38:21.694Z,19.28
2022-08-07T20:40:53.743Z,19.25
2022-08-07T20:43:25.198Z,19.52
2022-08-07T20:46:28.786Z,19.53
2022-08-07T20:48:58.008Z,19.39
2022-08-07T20:51:30.730Z,19.15
2022-08-07T20:54:08.654Z,18.94
2022-08-07T20:56:48.384Z,18.82
2022-08-07T21:00:05.318Z,18.73
2022-08-07T21:02:08.567Z,18.62
2022-08-07T21:04:49.913Z,18.54
2022-08-07T21:07:29.268Z,18.44
2022-08-07T21:10:00.401Z,18.37
2022-08-07T21:12:31.034Z,18.29
2022-08-07T21:15:07.961Z,18.26
2022-08-07T21:18:03.076Z,18.17
2022-08-07T21:20:29.628Z,18.05
2022-08-07T21:22:58.313Z,17.97
2022-08-07T21:25:43.625Z,17.93
2022-08-07T21:28:49.299Z,17.86
2022-08-07T21:31:11.972Z,17.78
2022-08-07T21:34:08.081Z,17.69
2022-08-07T21:36:56.676Z,17.60
2022-08-07T21:39:47.435Z,17.61
2022-08-07T21:42:46.189Z,17.64
2022-08-07T21:46:05.418Z,17.57
2022-08-07T21:48:28.849Z,17.51
2022-08-07T21:51:20.410Z,17.43
2022-08-07T21:53:54.020Z,17.43
2022-08-07T21:57:16.096Z,17.35
2022-08-07T22:00:22.799Z,17.30
2022-08-07T22:03:03.577Z,17.27
2022-08-07T22:05:46.138Z,17.14
2022-08-07T22:08:18.562Z,17.08
2022-08-07T22:10:49.754Z,17.06
2022-08-07T22:13:17.339Z,17.04
2022-08-07T22:16:43.620Z,16.97
2022-08-07T22:18:55.525Z,16.92
2022-08-07T22:22:04.546Z,16.85
2022-08-07T22:24:21.070Z,16.77
2022-08-07T22:27:01.447Z,16.73
2022-08-07T22:29:48.052Z,16.70
2022-08-07T22:32:44.193Z,16.66
2022-08-07T22:35:11.387Z,16.60
2022-08-07T22:38:03.581Z,16.54
2022-08-07T22:41:02.703Z,16.48
2022-08-07T22:43:49.653Z,16.40
2022-08-07T22:47:02.483Z,16.40
2022-08-07T22:49:54.148Z,16.35
2022-08-07T22:52:49.061Z,16.28
2022-08-07T22:55:47.458Z,16.18
2022-08-07T22:58:33.436Z,16.10
2022-08-07T23:01:41.970Z,16.04
2022-08-07T23:04:57.708Z,16.00
2022-08-07T23:07:42.388Z,15.99
2022-08-07T23:10:37.281Z,15.95
2022-08-07T23:13:48.971Z,15.86
2022-08-07T23:16:54.320Z,15.77
2022-08-07T23:20:00.154Z,15.72
2022-08-07T23:22:41.211Z,15.70
2022-08-07T23:25:28.520Z,15.65
2022-08-07T23:28:33.422Z,15.66
2022-08-07T23:31:11.469Z,15.59
2022-08-07T23:34:34.366Z,15.59
2022-08-07T23:37:20.492Z,15.49
2022-08-07T23:40:14.487Z,15.43
2022-08-07T23:43:17.067Z,15.37
2022-08-07T23:46:23.481Z,15.31
2022-08-07T23:49:17.983Z,15.28
2022-08-07T23:53:05.839Z,15.22
2022-08-07T23:54:51.930Z,15.18
2022-08-07T23:57:34.929Z,15.17
